sensor_id;sensor_type;location;lat;lon;timestamp;temperature;humidity
12907;DHT22;6521;50.498;8.474;2022-10-17T00:00:37;13.23;94.58
12907;DHT22;6521;50.498;8.474;2022-10-17T00:03:08;13.23;94.81
12907;DHT22;6521;50.498;8.474;2022-10-17T00:05:41;13.24;94.83
12907;DHT22;6521;50.498;8.474;2022-10-17T00:08:13;13.24;94.81
12907;DHT22;6521;50.498;8.474;2022-10-17T00:10:45;13.23;94.83
12907;DHT22;6521;50.498;8.474;2022-10-17T00:13:24;13.20;94.90
12907;DHT22;6521;50.498;8.474;2022-10-17T00:15:56;13.22;94.76
12907;DHT22;6521;50.498;8.474;2022-10-17T00:18:27;13.17;94.89
12907;DHT22;6521;50.498;8.474;2022-10-17T00:20:58;13.17;94.80
12907;DHT22;6521;50.498;8.474;2022-10-17T00:23:29;13.16;94.97
12907;DHT22;6521;50.498;8.474;2022-10-17T00:26:01;13.09;95.03
12907;DHT22;6521;50.498;8.474;2022-10-17T00:28:32;13.10;95.07
12907;DHT22;6521;50.498;8.474;2022-10-17T00:31:05;13.06;95.09
12907;DHT22;6521;50.498;8.474;2022-10-17T00:33:36;13.03;95.13
12907;DHT22;6521;50.498;8.474;2022-10-17T00:36:18;12.99;95.31
12907;DHT22;6521;50.498;8.474;2022-10-17T00:38:52;12.96;95.29
12907;DHT22;6521;50.498;8.474;2022-10-17T00:41:26;12.93;95.27
12907;DHT22;6521;50.498;8.474;2022-10-17T00:46:58;12.83;95.26
12907;DHT22;6521;50.498;8.474;2022-10-17T00:49:33;12.85;95.26
12907;DHT22;6521;50.498;8.474;2022-10-17T00:52:08;12.85;95.26
12907;DHT22;6521;50.498;8.474;2022-10-17T00:54:47;12.79;95.28
12907;DHT22;6521;50.498;8.474;2022-10-17T00:57:19;12.81;95.14
12907;DHT22;6521;50.498;8.474;2022-10-17T00:59:51;12.78;95.26
12907;DHT22;6521;50.498;8.474;2022-10-17T01:02:24;12.78;95.30
12907;DHT22;6521;50.498;8.474;2022-10-17T01:04:56;12.76;95.24
12907;DHT22;6521;50.498;8.474;2022-10-17T01:07:29;12.73;95.29
12907;DHT22;6521;50.498;8.474;2022-10-17T01:10:00;12.69;95.30
12907;DHT22;6521;50.498;8.474;2022-10-17T01:15:15;12.69;95.34
12907;DHT22;6521;50.498;8.474;2022-10-17T01:31:39;12.68;95.44
12907;DHT22;6521;50.498;8.474;2022-10-17T01:34:18;12.66;95.32
12907;DHT22;6521;50.498;8.474;2022-10-17T01:36:55;12.64;95.30
12907;DHT22;6521;50.498;8.474;2022-10-17T01:42:20;12.59;95.20
12907;DHT22;6521;50.498;8.474;2022-10-17T01:45:00;12.59;95.26
12907;DHT22;6521;50.498;8.474;2022-10-17T01:47:33;12.58;95.30
12907;DHT22;6521;50.498;8.474;2022-10-17T01:50:10;12.56;95.27
12907;DHT22;6521;50.498;8.474;2022-10-17T01:52:53;12.56;95.27
12907;DHT22;6521;50.498;8.474;2022-10-17T01:55:36;12.55;95.14
12907;DHT22;6521;50.498;8.474;2022-10-17T01:58:12;12.52;95.02
12907;DHT22;6521;50.498;8.474;2022-10-17T02:00:44;12.52;95.10
12907;DHT22;6521;50.498;8.474;2022-10-17T02:03:18;12.51;95.10
12907;DHT22;6521;50.498;8.474;2022-10-17T02:05:50;12.51;95.56
12907;DHT22;6521;50.498;8.474;2022-10-17T02:08:30;12.59;95.87
12907;DHT22;6521;50.498;8.474;2022-10-17T02:11:35;12.64;95.94
12907;DHT22;6521;50.498;8.474;2022-10-17T02:22:51;12.69;95.73
12907;DHT22;6521;50.498;8.474;2022-10-17T02:31:19;12.72;95.86
12907;DHT22;6521;50.498;8.474;2022-10-17T02:34:04;12.78;95.94
12907;DHT22;6521;50.498;8.474;2022-10-17T02:36:44;12.81;96.06
12907;DHT22;6521;50.498;8.474;2022-10-17T02:39:18;12.82;96.09
12907;DHT22;6521;50.498;8.474;2022-10-17T02:41:51;12.83;96.08
12907;DHT22;6521;50.498;8.474;2022-10-17T02:44:23;12.83;96.02
12907;DHT22;6521;50.498;8.474;2022-10-17T02:47:03;12.83;96.07
12907;DHT22;6521;50.498;8.474;2022-10-17T02:49:40;12.86;96.07
12907;DHT22;6521;50.498;8.474;2022-10-17T02:52:16;12.86;96.11
12907;DHT22;6521;50.498;8.474;2022-10-17T02:58:03;12.89;96.12
12907;DHT22;6521;50.498;8.474;2022-10-17T03:00:37;12.88;96.05
12907;DHT22;6521;50.498;8.474;2022-10-17T03:03:24;12.92;95.91
12907;DHT22;6521;50.498;8.474;2022-10-17T03:05:55;12.88;96.00
12907;DHT22;6521;50.498;8.474;2022-10-17T03:08:29;12.88;96.08
12907;DHT22;6521;50.498;8.474;2022-10-17T03:11:00;12.89;96.06
12907;DHT22;6521;50.498;8.474;2022-10-17T03:13:32;12.89;96.06
12907;DHT22;6521;50.498;8.474;2022-10-17T03:16:03;12.86;96.09
12907;DHT22;6521;50.498;8.474;2022-10-17T03:18:36;12.85;96.04
12907;DHT22;6521;50.498;8.474;2022-10-17T03:21:07;12.82;95.95
12907;DHT22;6521;50.498;8.474;2022-10-17T03:23:38;12.81;95.74
12907;DHT22;6521;50.498;8.474;2022-10-17T03:26:10;12.75;95.80
12907;DHT22;6521;50.498;8.474;2022-10-17T03:28:41;12.72;95.81
12907;DHT22;6521;50.498;8.474;2022-10-17T03:31:14;12.75;95.94
12907;DHT22;6521;50.498;8.474;2022-10-17T03:33:46;12.75;96.09
12907;DHT22;6521;50.498;8.474;2022-10-17T03:36:18;12.73;96.07
12907;DHT22;6521;50.498;8.474;2022-10-17T03:38:53;12.71;96.02
12907;DHT22;6521;50.498;8.474;2022-10-17T03:41:25;12.72;96.05
12907;DHT22;6521;50.498;8.474;2022-10-17T03:43:56;12.69;96.02
12907;DHT22;6521;50.498;8.474;2022-10-17T03:46:27;12.72;95.95
12907;DHT22;6521;50.498;8.474;2022-10-17T03:49:00;12.68;95.93
12907;DHT22;6521;50.498;8.474;2022-10-17T03:51:32;12.68;96.13
12907;DHT22;6521;50.498;8.474;2022-10-17T03:54:07;12.66;96.30
12907;DHT22;6521;50.498;8.474;2022-10-17T03:56:38;12.68;96.41
12907;DHT22;6521;50.498;8.474;2022-10-17T03:59:14;12.66;96.52
12907;DHT22;6521;50.498;8.474;2022-10-17T04:01:48;12.68;96.54
12907;DHT22;6521;50.498;8.474;2022-10-17T04:04:20;12.65;96.63
12907;DHT22;6521;50.498;8.474;2022-10-17T04:06:51;12.69;96.73
12907;DHT22;6521;50.498;8.474;2022-10-17T04:09:22;12.69;96.82
12907;DHT22;6521;50.498;8.474;2022-10-17T04:11:59;12.72;96.82
12907;DHT22;6521;50.498;8.474;2022-10-17T04:14:30;12.73;96.85
12907;DHT22;6521;50.498;8.474;2022-10-17T04:17:01;12.76;96.86
12907;DHT22;6521;50.498;8.474;2022-10-17T04:19:32;12.73;96.83
12907;DHT22;6521;50.498;8.474;2022-10-17T04:22:03;12.73;96.76
12907;DHT22;6521;50.498;8.474;2022-10-17T04:24:37;12.72;96.73
12907;DHT22;6521;50.498;8.474;2022-10-17T04:27:28;12.76;96.74
12907;DHT22;6521;50.498;8.474;2022-10-17T04:29:58;12.72;96.75
12907;DHT22;6521;50.498;8.474;2022-10-17T04:32:29;12.72;96.74
12907;DHT22;6521;50.498;8.474;2022-10-17T04:35:11;12.69;96.77
12907;DHT22;6521;50.498;8.474;2022-10-17T04:37:46;12.69;96.79
12907;DHT22;6521;50.498;8.474;2022-10-17T04:40:21;12.71;96.76
12907;DHT22;6521;50.498;8.474;2022-10-17T04:42:55;12.72;96.76
12907;DHT22;6521;50.498;8.474;2022-10-17T04:45:32;12.75;96.74
12907;DHT22;6521;50.498;8.474;2022-10-17T04:48:07;12.72;96.69
12907;DHT22;6521;50.498;8.474;2022-10-17T04:50:38;12.71;96.67
12907;DHT22;6521;50.498;8.474;2022-10-17T04:53:31;12.73;96.65
12907;DHT22;6521;50.498;8.474;2022-10-17T04:56:16;12.73;96.69
12907;DHT22;6521;50.498;8.474;2022-10-17T04:58:48;12.71;96.69
12907;DHT22;6521;50.498;8.474;2022-10-17T05:01:21;12.72;96.67
12907;DHT22;6521;50.498;8.474;2022-10-17T05:03:56;12.68;96.70
12907;DHT22;6521;50.498;8.474;2022-10-17T05:06:26;12.71;96.76
12907;DHT22;6521;50.498;8.474;2022-10-17T05:09:22;12.71;96.89
12907;DHT22;6521;50.498;8.474;2022-10-17T05:11:52;12.71;96.82
12907;DHT22;6521;50.498;8.474;2022-10-17T05:14:23;12.68;96.84
12907;DHT22;6521;50.498;8.474;2022-10-17T05:16:54;12.69;96.78
12907;DHT22;6521;50.498;8.474;2022-10-17T05:19:25;12.71;96.76
12907;DHT22;6521;50.498;8.474;2022-10-17T05:21:56;12.68;96.69
12907;DHT22;6521;50.498;8.474;2022-10-17T05:24:26;12.66;96.67
12907;DHT22;6521;50.498;8.474;2022-10-17T05:26:57;12.65;96.69
12907;DHT22;6521;50.498;8.474;2022-10-17T05:29:28;12.65;96.62
12907;DHT22;6521;50.498;8.474;2022-10-17T05:32:08;12.59;96.47
12907;DHT22;6521;50.498;8.474;2022-10-17T05:34:39;12.55;96.50
12907;DHT22;6521;50.498;8.474;2022-10-17T05:37:10;12.54;96.44
12907;DHT22;6521;50.498;8.474;2022-10-17T05:39:41;12.54;96.53
12907;DHT22;6521;50.498;8.474;2022-10-17T05:42:13;12.45;96.33
12907;DHT22;6521;50.498;8.474;2022-10-17T05:44:44;12.44;96.46
12907;DHT22;6521;50.498;8.474;2022-10-17T05:47:17;12.45;96.54
12907;DHT22;6521;50.498;8.474;2022-10-17T05:49:48;12.42;96.34
12907;DHT22;6521;50.498;8.474;2022-10-17T05:52:20;12.38;96.17
12907;DHT22;6521;50.498;8.474;2022-10-17T05:55:09;12.33;96.00
12907;DHT22;6521;50.498;8.474;2022-10-17T05:57:40;12.30;96.06
12907;DHT22;6521;50.498;8.474;2022-10-17T06:00:14;12.25;96.24
12907;DHT22;6521;50.498;8.474;2022-10-17T06:02:47;12.28;96.56
12907;DHT22;6521;50.498;8.474;2022-10-17T06:05:20;12.33;96.62
12907;DHT22;6521;50.498;8.474;2022-10-17T06:07:51;12.51;97.18
12907;DHT22;6521;50.498;8.474;2022-10-17T06:10:23;12.68;97.19
12907;DHT22;6521;50.498;8.474;2022-10-17T06:12:53;12.75;96.88
12907;DHT22;6521;50.498;8.474;2022-10-17T06:15:24;12.86;97.07
12907;DHT22;6521;50.498;8.474;2022-10-17T06:18:01;13.00;97.08
12907;DHT22;6521;50.498;8.474;2022-10-17T06:20:32;13.10;96.75
12907;DHT22;6521;50.498;8.474;2022-10-17T06:23:03;13.03;96.38
12907;DHT22;6521;50.498;8.474;2022-10-17T06:25:49;12.95;95.99
12907;DHT22;6521;50.498;8.474;2022-10-17T06:28:20;12.91;96.01
12907;DHT22;6521;50.498;8.474;2022-10-17T06:30:51;12.89;96.01
12907;DHT22;6521;50.498;8.474;2022-10-17T06:33:22;12.92;96.36
12907;DHT22;6521;50.498;8.474;2022-10-17T06:35:54;12.99;96.50
12907;DHT22;6521;50.498;8.474;2022-10-17T06:38:27;13.09;96.93
12907;DHT22;6521;50.498;8.474;2022-10-17T06:41:06;13.14;96.65
12907;DHT22;6521;50.498;8.474;2022-10-17T06:43:40;13.55;97.64
12907;DHT22;6521;50.498;8.474;2022-10-17T06:46:31;13.94;97.17
12907;DHT22;6521;50.498;8.474;2022-10-17T06:49:08;14.39;96.49
12907;DHT22;6521;50.498;8.474;2022-10-17T06:51:55;14.95;94.60
12907;DHT22;6521;50.498;8.474;2022-10-17T06:54:33;15.12;93.47
12907;DHT22;6521;50.498;8.474;2022-10-17T06:57:30;15.22;92.82
12907;DHT22;6521;50.498;8.474;2022-10-17T07:00:20;15.40;92.21
12907;DHT22;6521;50.498;8.474;2022-10-17T07:02:55;15.52;92.22
12907;DHT22;6521;50.498;8.474;2022-10-17T07:05:27;15.60;91.50
12907;DHT22;6521;50.498;8.474;2022-10-17T07:07:57;15.83;91.19
12907;DHT22;6521;50.498;8.474;2022-10-17T07:10:28;16.04;89.32
12907;DHT22;6521;50.498;8.474;2022-10-17T07:12:59;16.14;89.06
12907;DHT22;6521;50.498;8.474;2022-10-17T07:15:29;16.31;88.27
12907;DHT22;6521;50.498;8.474;2022-10-17T07:18:02;16.48;87.64
12907;DHT22;6521;50.498;8.474;2022-10-17T07:20:33;16.66;86.36
12907;DHT22;6521;50.498;8.474;2022-10-17T07:23:05;16.72;85.75
12907;DHT22;6521;50.498;8.474;2022-10-17T07:25:36;16.73;85.98
12907;DHT22;6521;50.498;8.474;2022-10-17T07:28:10;16.71;85.77
12907;DHT22;6521;50.498;8.474;2022-10-17T07:30:42;16.80;85.66
12907;DHT22;6521;50.498;8.474;2022-10-17T07:33:15;16.86;85.31
12907;DHT22;6521;50.498;8.474;2022-10-17T07:35:46;16.85;85.36
12907;DHT22;6521;50.498;8.474;2022-10-17T07:38:17;16.92;85.29
12907;DHT22;6521;50.498;8.474;2022-10-17T07:40:53;16.97;85.15
12907;DHT22;6521;50.498;8.474;2022-10-17T07:43:25;17.07;84.62
12907;DHT22;6521;50.498;8.474;2022-10-17T07:45:57;17.16;84.33
12907;DHT22;6521;50.498;8.474;2022-10-17T07:48:29;17.38;82.72
12907;DHT22;6521;50.498;8.474;2022-10-17T07:51:02;17.37;83.15
12907;DHT22;6521;50.498;8.474;2022-10-17T07:53:35;17.45;82.88
12907;DHT22;6521;50.498;8.474;2022-10-17T07:56:07;17.51;82.53
12907;DHT22;6521;50.498;8.474;2022-10-17T07:58:38;17.65;81.68
12907;DHT22;6521;50.498;8.474;2022-10-17T08:01:10;17.79;81.03
12907;DHT22;6521;50.498;8.474;2022-10-17T08:03:44;17.77;81.16
12907;DHT22;6521;50.498;8.474;2022-10-17T08:06:16;17.81;81.17
12907;DHT22;6521;50.498;8.474;2022-10-17T08:08:47;17.84;81.08
12907;DHT22;6521;50.498;8.474;2022-10-17T08:11:17;17.91;80.40
12907;DHT22;6521;50.498;8.474;2022-10-17T08:13:48;17.99;79.10
12907;DHT22;6521;50.498;8.474;2022-10-17T08:16:19;18.08;78.81
12907;DHT22;6521;50.498;8.474;2022-10-17T08:18:50;18.08;78.21
12907;DHT22;6521;50.498;8.474;2022-10-17T08:21:21;18.09;77.46
12907;DHT22;6521;50.498;8.474;2022-10-17T08:23:52;18.09;78.50
12907;DHT22;6521;50.498;8.474;2022-10-17T08:26:22;18.14;77.78
12907;DHT22;6521;50.498;8.474;2022-10-17T08:28:53;18.22;76.98
12907;DHT22;6521;50.498;8.474;2022-10-17T08:31:24;18.30;76.49
12907;DHT22;6521;50.498;8.474;2022-10-17T08:33:56;18.33;77.10
12907;DHT22;6521;50.498;8.474;2022-10-17T08:36:27;18.36;76.13
12907;DHT22;6521;50.498;8.474;2022-10-17T08:38:58;18.51;74.36
12907;DHT22;6521;50.498;8.474;2022-10-17T08:47:03;18.74;75.03
12907;DHT22;6521;50.498;8.474;2022-10-17T08:49:48;18.70;74.54
12907;DHT22;6521;50.498;8.474;2022-10-17T08:52:34;18.75;74.31
12907;DHT22;6521;50.498;8.474;2022-10-17T08:55:40;18.84;72.90
12907;DHT22;6521;50.498;8.474;2022-10-17T08:58:26;18.88;74.15
12907;DHT22;6521;50.498;8.474;2022-10-17T09:06:36;19.12;72.23
12907;DHT22;6521;50.498;8.474;2022-10-17T09:12:04;19.11;72.54
12907;DHT22;6521;50.498;8.474;2022-10-17T09:20:09;19.42;73.02
12907;DHT22;6521;50.498;8.474;2022-10-17T09:22:51;19.63;70.54
12907;DHT22;6521;50.498;8.474;2022-10-17T09:25:25;19.84;71.85
12907;DHT22;6521;50.498;8.474;2022-10-17T09:28:19;20.04;68.86
12907;DHT22;6521;50.498;8.474;2022-10-17T09:31:02;20.16;67.95
12907;DHT22;6521;50.498;8.474;2022-10-17T09:33:41;20.34;69.34
12907;DHT22;6521;50.498;8.474;2022-10-17T09:36:19;20.65;69.99
12907;DHT22;6521;50.498;8.474;2022-10-17T09:38:53;21.03;69.68
12907;DHT22;6521;50.498;8.474;2022-10-17T09:49:41;22.09;63.15
12907;DHT22;6521;50.498;8.474;2022-10-17T09:52:20;22.20;61.29
12907;DHT22;6521;50.498;8.474;2022-10-17T09:54:56;22.47;60.16
12907;DHT22;6521;50.498;8.474;2022-10-17T09:57:28;22.32;60.35
12907;DHT22;6521;50.498;8.474;2022-10-17T10:00:24;22.65;59.92
12907;DHT22;6521;50.498;8.474;2022-10-17T10:05:57;22.71;59.69
12907;DHT22;6521;50.498;8.474;2022-10-17T10:08:32;22.59;58.92
12907;DHT22;6521;50.498;8.474;2022-10-17T10:11:06;22.49;59.92
12907;DHT22;6521;50.498;8.474;2022-10-17T10:13:37;22.43;58.65
12907;DHT22;6521;50.498;8.474;2022-10-17T10:16:44;22.51;58.96
12907;DHT22;6521;50.498;8.474;2022-10-17T10:19:27;22.50;57.49
12907;DHT22;6521;50.498;8.474;2022-10-17T10:22:01;22.63;58.02
12907;DHT22;6521;50.498;8.474;2022-10-17T10:24:32;22.94;57.25
12907;DHT22;6521;50.498;8.474;2022-10-17T10:27:03;22.90;56.10
12907;DHT22;6521;50.498;8.474;2022-10-17T10:29:37;22.91;55.93
12907;DHT22;6521;50.498;8.474;2022-10-17T10:34:50;22.95;55.64
12907;DHT22;6521;50.498;8.474;2022-10-17T10:37:37;22.94;56.22
12907;DHT22;6521;50.498;8.474;2022-10-17T10:43:04;23.07;55.26
12907;DHT22;6521;50.498;8.474;2022-10-17T10:48:22;23.29;54.84
12907;DHT22;6521;50.498;8.474;2022-10-17T10:51:07;23.42;55.47
12907;DHT22;6521;50.498;8.474;2022-10-17T10:53:46;23.41;55.72
12907;DHT22;6521;50.498;8.474;2022-10-17T10:56:36;23.59;55.80
12907;DHT22;6521;50.498;8.474;2022-10-17T11:10:40;23.94;54.48
12907;DHT22;6521;50.498;8.474;2022-10-17T11:13:00;24.20;53.97
12907;DHT22;6521;50.498;8.474;2022-10-17T11:18:10;24.37;53.24
12907;DHT22;6521;50.498;8.474;2022-10-17T11:20:59;24.64;54.07
12907;DHT22;6521;50.498;8.474;2022-10-17T11:26:12;24.64;52.77
12907;DHT22;6521;50.498;8.474;2022-10-17T11:28:43;24.75;53.21
12907;DHT22;6521;50.498;8.474;2022-10-17T11:31:14;24.92;53.25
12907;DHT22;6521;50.498;8.474;2022-10-17T11:34:00;24.90;51.93
12907;DHT22;6521;50.498;8.474;2022-10-17T11:36:38;25.03;52.06
12907;DHT22;6521;50.498;8.474;2022-10-17T11:39:44;24.95;51.75
12907;DHT22;6521;50.498;8.474;2022-10-17T11:42:32;24.79;51.74
12907;DHT22;6521;50.498;8.474;2022-10-17T11:45:10;24.65;53.74
12907;DHT22;6521;50.498;8.474;2022-10-17T11:47:46;24.61;51.73
12907;DHT22;6521;50.498;8.474;2022-10-17T11:50:37;24.42;53.43
12907;DHT22;6521;50.498;8.474;2022-10-17T11:53:13;24.41;52.88
12907;DHT22;6521;50.498;8.474;2022-10-17T11:55:46;24.03;53.66
12907;DHT22;6521;50.498;8.474;2022-10-17T11:58:38;23.66;54.55
12907;DHT22;6521;50.498;8.474;2022-10-17T12:01:30;23.84;55.90
12907;DHT22;6521;50.498;8.474;2022-10-17T12:06:55;24.04;54.96
12907;DHT22;6521;50.498;8.474;2022-10-17T12:12:30;23.37;55.09
12907;DHT22;6521;50.498;8.474;2022-10-17T12:17:43;23.33;56.83
12907;DHT22;6521;50.498;8.474;2022-10-17T12:20:23;23.42;57.97
12907;DHT22;6521;50.498;8.474;2022-10-17T12:25:31;23.94;55.65
12907;DHT22;6521;50.498;8.474;2022-10-17T12:30:49;24.01;55.54
12907;DHT22;6521;50.498;8.474;2022-10-17T12:33:34;23.83;55.09
12907;DHT22;6521;50.498;8.474;2022-10-17T12:46:53;23.14;57.05
12907;DHT22;6521;50.498;8.474;2022-10-17T12:57:31;22.98;60.11
12907;DHT22;6521;50.498;8.474;2022-10-17T13:00:28;23.08;59.74
12907;DHT22;6521;50.498;8.474;2022-10-17T13:05:46;23.35;59.01
12907;DHT22;6521;50.498;8.474;2022-10-17T13:08:24;23.25;59.81
12907;DHT22;6521;50.498;8.474;2022-10-17T13:10:55;23.43;59.46
12907;DHT22;6521;50.498;8.474;2022-10-17T13:13:50;23.84;57.68
12907;DHT22;6521;50.498;8.474;2022-10-17T13:16:33;23.92;57.39
12907;DHT22;6521;50.498;8.474;2022-10-17T13:19:13;23.67;57.31
12907;DHT22;6521;50.498;8.474;2022-10-17T13:24:36;24.20;57.18
12907;DHT22;6521;50.498;8.474;2022-10-17T13:27:28;24.04;57.07
12907;DHT22;6521;50.498;8.474;2022-10-17T13:30:01;23.92;57.64
12907;DHT22;6521;50.498;8.474;2022-10-17T13:32:38;24.00;57.29
12907;DHT22;6521;50.498;8.474;2022-10-17T13:35:12;23.90;57.15
12907;DHT22;6521;50.498;8.474;2022-10-17T13:37:45;23.81;58.26
12907;DHT22;6521;50.498;8.474;2022-10-17T13:40:22;23.89;58.33
12907;DHT22;6521;50.498;8.474;2022-10-17T13:42:55;23.83;57.68
12907;DHT22;6521;50.498;8.474;2022-10-17T13:45:31;23.67;58.52
12907;DHT22;6521;50.498;8.474;2022-10-17T13:48:05;23.52;58.99
12907;DHT22;6521;50.498;8.474;2022-10-17T13:50:40;23.50;58.85
12907;DHT22;6521;50.498;8.474;2022-10-17T13:53:32;23.62;58.50
12907;DHT22;6521;50.498;8.474;2022-10-17T13:56:14;23.59;58.34
12907;DHT22;6521;50.498;8.474;2022-10-17T13:58:52;23.69;58.82
12907;DHT22;6521;50.498;8.474;2022-10-17T14:01:25;23.80;58.38
12907;DHT22;6521;50.498;8.474;2022-10-17T14:03:57;23.87;58.36
12907;DHT22;6521;50.498;8.474;2022-10-17T14:06:29;23.73;58.51
12907;DHT22;6521;50.498;8.474;2022-10-17T14:09:04;23.49;59.37
12907;DHT22;6521;50.498;8.474;2022-10-17T14:11:39;23.43;59.34
12907;DHT22;6521;50.498;8.474;2022-10-17T14:14:29;23.38;59.48
12907;DHT22;6521;50.498;8.474;2022-10-17T14:16:59;23.26;60.28
12907;DHT22;6521;50.498;8.474;2022-10-17T14:19:32;23.14;61.75
12907;DHT22;6521;50.498;8.474;2022-10-17T14:22:22;23.37;60.62
12907;DHT22;6521;50.498;8.474;2022-10-17T14:24:55;23.15;60.42
12907;DHT22;6521;50.498;8.474;2022-10-17T14:27:37;23.11;60.96
12907;DHT22;6521;50.498;8.474;2022-10-17T14:32:58;23.12;61.09
12907;DHT22;6521;50.498;8.474;2022-10-17T14:35:30;23.05;61.61
12907;DHT22;6521;50.498;8.474;2022-10-17T14:38:03;22.97;61.49
12907;DHT22;6521;50.498;8.474;2022-10-17T14:40:35;22.83;62.05
12907;DHT22;6521;50.498;8.474;2022-10-17T14:43:06;22.67;62.82
12907;DHT22;6521;50.498;8.474;2022-10-17T14:45:38;22.57;62.50
12907;DHT22;6521;50.498;8.474;2022-10-17T14:48:15;22.60;62.62
12907;DHT22;6521;50.498;8.474;2022-10-17T14:51:11;22.59;62.63
12907;DHT22;6521;50.498;8.474;2022-10-17T14:56:41;22.61;63.01
12907;DHT22;6521;50.498;8.474;2022-10-17T14:59:12;22.57;63.52
12907;DHT22;6521;50.498;8.474;2022-10-17T15:01:50;22.50;64.14
12907;DHT22;6521;50.498;8.474;2022-10-17T15:04:21;22.39;63.81
12907;DHT22;6521;50.498;8.474;2022-10-17T15:07:13;22.33;64.10
12907;DHT22;6521;50.498;8.474;2022-10-17T15:09:46;22.26;64.45
12907;DHT22;6521;50.498;8.474;2022-10-17T15:12:20;22.24;64.88
12907;DHT22;6521;50.498;8.474;2022-10-17T15:14:52;22.19;64.68
12907;DHT22;6521;50.498;8.474;2022-10-17T15:17:26;22.16;65.08
12907;DHT22;6521;50.498;8.474;2022-10-17T15:19:57;22.03;65.16
12907;DHT22;6521;50.498;8.474;2022-10-17T15:22:28;22.05;65.01
12907;DHT22;6521;50.498;8.474;2022-10-17T15:25:00;22.03;64.93
12907;DHT22;6521;50.498;8.474;2022-10-17T15:27:31;21.92;65.57
12907;DHT22;6521;50.498;8.474;2022-10-17T15:30:02;21.89;65.47
12907;DHT22;6521;50.498;8.474;2022-10-17T15:32:33;21.72;65.79
12907;DHT22;6521;50.498;8.474;2022-10-17T15:35:04;21.57;65.55
12907;DHT22;6521;50.498;8.474;2022-10-17T15:37:35;21.54;65.99
12907;DHT22;6521;50.498;8.474;2022-10-17T15:40:12;21.45;66.58
12907;DHT22;6521;50.498;8.474;2022-10-17T15:42:43;21.41;66.08
12907;DHT22;6521;50.498;8.474;2022-10-17T15:45:16;21.30;66.35
12907;DHT22;6521;50.498;8.474;2022-10-17T15:48:03;21.23;66.57
12907;DHT22;6521;50.498;8.474;2022-10-17T15:50:35;21.08;66.80
12907;DHT22;6521;50.498;8.474;2022-10-17T15:53:10;21.02;66.99
12907;DHT22;6521;50.498;8.474;2022-10-17T15:55:41;20.87;67.25
12907;DHT22;6521;50.498;8.474;2022-10-17T15:58:14;20.82;67.53
12907;DHT22;6521;50.498;8.474;2022-10-17T16:00:46;20.69;67.79
12907;DHT22;6521;50.498;8.474;2022-10-17T16:03:17;20.55;68.18
12907;DHT22;6521;50.498;8.474;2022-10-17T16:05:48;20.52;68.18
12907;DHT22;6521;50.498;8.474;2022-10-17T16:08:18;20.44;68.65
12907;DHT22;6521;50.498;8.474;2022-10-17T16:10:50;20.34;69.07
12907;DHT22;6521;50.498;8.474;2022-10-17T16:13:22;20.24;69.42
12907;DHT22;6521;50.498;8.474;2022-10-17T16:15:53;20.17;69.61
12907;DHT22;6521;50.498;8.474;2022-10-17T16:18:24;20.07;69.96
12907;DHT22;6521;50.498;8.474;2022-10-17T16:20:55;20.00;71.46
12907;DHT22;6521;50.498;8.474;2022-10-17T16:23:25;19.83;71.16
12907;DHT22;6521;50.498;8.474;2022-10-17T16:25:56;19.73;71.43
12907;DHT22;6521;50.498;8.474;2022-10-17T16:28:27;19.67;72.16
12907;DHT22;6521;50.498;8.474;2022-10-17T16:30:58;19.59;71.84
12907;DHT22;6521;50.498;8.474;2022-10-17T16:33:28;19.56;72.17
12907;DHT22;6521;50.498;8.474;2022-10-17T16:36:00;19.59;71.79
12907;DHT22;6521;50.498;8.474;2022-10-17T16:38:31;19.58;71.92
12907;DHT22;6521;50.498;8.474;2022-10-17T16:41:02;19.50;72.10
12907;DHT22;6521;50.498;8.474;2022-10-17T16:43:33;19.43;72.58
12907;DHT22;6521;50.498;8.474;2022-10-17T16:46:06;19.39;72.90
12907;DHT22;6521;50.498;8.474;2022-10-17T16:48:36;19.35;72.81
12907;DHT22;6521;50.498;8.474;2022-10-17T16:51:07;19.29;73.25
12907;DHT22;6521;50.498;8.474;2022-10-17T16:53:38;19.28;73.53
12907;DHT22;6521;50.498;8.474;2022-10-17T16:56:16;19.22;73.44
12907;DHT22;6521;50.498;8.474;2022-10-17T16:58:48;19.12;73.79
12907;DHT22;6521;50.498;8.474;2022-10-17T17:01:22;19.08;73.86
12907;DHT22;6521;50.498;8.474;2022-10-17T17:03:53;18.97;74.31
12907;DHT22;6521;50.498;8.474;2022-10-17T17:06:27;18.94;74.48
12907;DHT22;6521;50.498;8.474;2022-10-17T17:08:58;18.90;74.57
12907;DHT22;6521;50.498;8.474;2022-10-17T17:11:28;18.83;74.76
12907;DHT22;6521;50.498;8.474;2022-10-17T17:14:01;18.75;75.01
12907;DHT22;6521;50.498;8.474;2022-10-17T17:16:33;18.70;75.41
12907;DHT22;6521;50.498;8.474;2022-10-17T17:19:07;18.67;75.54
12907;DHT22;6521;50.498;8.474;2022-10-17T17:21:38;18.61;75.67
12907;DHT22;6521;50.498;8.474;2022-10-17T17:24:08;18.61;75.80
12907;DHT22;6521;50.498;8.474;2022-10-17T17:26:39;18.56;75.91
12907;DHT22;6521;50.498;8.474;2022-10-17T17:29:11;18.44;76.17
12907;DHT22;6521;50.498;8.474;2022-10-17T17:31:41;18.34;76.46
12907;DHT22;6521;50.498;8.474;2022-10-17T17:34:12;18.22;77.02
12907;DHT22;6521;50.498;8.474;2022-10-17T17:36:43;18.09;78.03
12907;DHT22;6521;50.498;8.474;2022-10-17T17:39:14;18.03;77.84
12907;DHT22;6521;50.498;8.474;2022-10-17T17:41:45;17.96;78.32
12907;DHT22;6521;50.498;8.474;2022-10-17T17:44:15;17.92;78.73
12907;DHT22;6521;50.498;8.474;2022-10-17T17:46:46;17.95;78.72
12907;DHT22;6521;50.498;8.474;2022-10-17T17:49:17;18.02;78.60
12907;DHT22;6521;50.498;8.474;2022-10-17T17:51:48;18.03;78.74
12907;DHT22;6521;50.498;8.474;2022-10-17T17:54:19;18.06;78.73
12907;DHT22;6521;50.498;8.474;2022-10-17T17:56:49;18.05;78.74
12907;DHT22;6521;50.498;8.474;2022-10-17T17:59:20;18.03;78.86
12907;DHT22;6521;50.498;8.474;2022-10-17T18:01:51;18.08;78.68
12907;DHT22;6521;50.498;8.474;2022-10-17T18:04:22;18.06;78.61
12907;DHT22;6521;50.498;8.474;2022-10-17T18:06:52;18.02;78.79
12907;DHT22;6521;50.498;8.474;2022-10-17T18:09:23;17.99;78.78
12907;DHT22;6521;50.498;8.474;2022-10-17T18:11:54;17.96;78.99
12907;DHT22;6521;50.498;8.474;2022-10-17T18:14:25;17.98;79.20
12907;DHT22;6521;50.498;8.474;2022-10-17T18:16:55;17.99;79.17
12907;DHT22;6521;50.498;8.474;2022-10-17T18:19:27;17.95;79.16
12907;DHT22;6521;50.498;8.474;2022-10-17T18:21:58;17.89;79.27
12907;DHT22;6521;50.498;8.474;2022-10-17T18:24:29;17.93;79.35
12907;DHT22;6521;50.498;8.474;2022-10-17T18:27:00;17.95;79.34
12907;DHT22;6521;50.498;8.474;2022-10-17T18:29:31;18.01;79.04
12907;DHT22;6521;50.498;8.474;2022-10-17T18:32:02;17.96;79.19
12907;DHT22;6521;50.498;8.474;2022-10-17T18:34:33;17.95;79.28
12907;DHT22;6521;50.498;8.474;2022-10-17T18:37:03;18.02;78.95
12907;DHT22;6521;50.498;8.474;2022-10-17T18:39:34;18.01;78.93
12907;DHT22;6521;50.498;8.474;2022-10-17T18:42:05;18.05;78.90
12907;DHT22;6521;50.498;8.474;2022-10-17T18:44:35;18.01;79.01
12907;DHT22;6521;50.498;8.474;2022-10-17T18:47:06;17.99;79.03
12907;DHT22;6521;50.498;8.474;2022-10-17T18:49:37;18.02;79.00
12907;DHT22;6521;50.498;8.474;2022-10-17T18:52:08;17.99;79.12